createdAt,value
2022-08-31T00:00:10.576Z,22.20
2022-08-31T00:02:57.178Z,22.10
2022-08-31T00:05:24.526Z,22.10
2022-08-31T00:07:52.635Z,22.00
2022-08-31T00:10:31.887Z,22.00
2022-08-31T00:13:00.713Z,22.00
2022-08-31T00:15:30.174Z,22.00
2022-08-31T00:17:57.610Z,21.90
2022-08-31T00:20:34.014Z,21.90
2022-08-31T00:23:04.132Z,21.90
2022-08-31T00:25:31.391Z,21.80
2022-08-31T00:27:58.349Z,21.80
2022-08-31T00:30:25.387Z,21.80
2022-08-31T00:32:52.321Z,21.70
2022-08-31T00:35:19.659Z,21.70
2022-08-31T00:37:48.094Z,21.60
2022-08-31T00:40:15.195Z,21.50
2022-08-31T00:42:42.347Z,21.50
2022-08-31T00:45:10.788Z,21.50
2022-08-31T00:47:37.763Z,21.40
2022-08-31T00:50:11.505Z,21.40
2022-08-31T00:52:43.022Z,21.30
2022-08-31T00:55:21.185Z,21.30
2022-08-31T00:57:53.120Z,21.30
2022-08-31T01:00:24.443Z,21.30
2022-08-31T01:02:51.693Z,21.00
2022-08-31T01:05:18.994Z,21.10
2022-08-31T01:07:48.280Z,21.10
2022-08-31T01:10:18.506Z,21.00
2022-08-31T01:12:47.662Z,21.00
2022-08-31T01:15:18.134Z,21.00
2022-08-31T01:17:48.350Z,20.90
2022-08-31T01:20:37.205Z,20.90
2022-08-31T01:23:13.233Z,20.90
2022-08-31T01:25:43.635Z,20.90
2022-08-31T01:28:11.854Z,20.90
2022-08-31T01:30:39.825Z,20.80
2022-08-31T01:33:07.032Z,20.80
2022-08-31T01:35:34.558Z,20.70
2022-08-31T01:38:02.701Z,20.70
2022-08-31T01:40:38.105Z,20.60
2022-08-31T01:43:05.086Z,20.50
2022-08-31T01:45:31.984Z,20.40
2022-08-31T01:47:59.993Z,20.40
2022-08-31T01:50:26.973Z,20.40
2022-08-31T01:52:53.849Z,20.30
2022-08-31T01:55:20.762Z,20.30
2022-08-31T01:57:47.668Z,20.20
2022-08-31T02:00:14.907Z,20.20
2022-08-31T02:02:42.060Z,20.20
2022-08-31T02:05:10.548Z,20.20
2022-08-31T02:07:37.471Z,20.20
2022-08-31T02:10:05.698Z,20.20
2022-08-31T02:12:32.658Z,20.20
2022-08-31T02:14:59.588Z,20.20
2022-08-31T02:17:26.562Z,20.30
2022-08-31T02:19:53.495Z,20.20
2022-08-31T02:22:20.467Z,20.10
2022-08-31T02:24:47.414Z,20.10
2022-08-31T02:27:14.326Z,20.10
2022-08-31T02:29:41.259Z,20.10
2022-08-31T02:32:08.315Z,20.00
2022-08-31T02:34:46.304Z,20.00
2022-08-31T02:37:13.248Z,20.00
2022-08-31T02:39:40.542Z,20.00
2022-08-31T02:42:07.799Z,20.00
2022-08-31T02:44:35.285Z,19.90
2022-08-31T02:47:02.214Z,19.90
2022-08-31T02:49:32.979Z,19.90
2022-08-31T02:51:59.992Z,19.90
2022-08-31T02:54:26.902Z,19.90
2022-08-31T02:56:53.790Z,19.90
2022-08-31T02:59:20.872Z,19.90
2022-08-31T03:01:48.315Z,20.00
2022-08-31T03:04:15.315Z,20.00
2022-08-31T03:06:42.336Z,20.00
2022-08-31T03:09:09.220Z,20.10
2022-08-31T03:11:36.128Z,20.00
2022-08-31T03:14:03.050Z,20.10
2022-08-31T03:16:29.933Z,20.10
2022-08-31T03:18:57.453Z,20.10
2022-08-31T03:21:24.364Z,20.10
2022-08-31T03:23:51.441Z,20.20
2022-08-31T03:26:18.382Z,20.20
2022-08-31T03:28:45.232Z,20.20
2022-08-31T03:31:12.159Z,20.20
2022-08-31T03:33:39.104Z,20.20
2022-08-31T03:36:07.234Z,20.20
2022-08-31T03:38:34.190Z,20.20
2022-08-31T03:41:02.002Z,20.20
2022-08-31T03:43:29.046Z,20.20
2022-08-31T03:45:55.995Z,20.20
2022-08-31T03:48:23.187Z,20.10
2022-08-31T03:50:50.188Z,20.20
2022-08-31T03:53:22.392Z,20.10
2022-08-31T03:55:49.997Z,20.10
2022-08-31T03:58:16.957Z,20.10
2022-08-31T04:00:44.430Z,20.10
2022-08-31T04:03:11.565Z,20.00
2022-08-31T04:05:44.334Z,20.00
2022-08-31T04:08:11.579Z,20.00
2022-08-31T04:10:40.799Z,19.90
2022-08-31T04:13:07.914Z,19.90
2022-08-31T04:15:37.014Z,19.90
2022-08-31T04:18:04.901Z,19.90
2022-08-31T04:20:36.603Z,20.00
2022-08-31T04:23:04.525Z,20.00
2022-08-31T04:25:31.746Z,20.00
2022-08-31T04:27:58.922Z,20.00
2022-08-31T04:30:25.873Z,20.00
2022-08-31T04:32:53.658Z,20.10
2022-08-31T04:35:20.763Z,20.10
2022-08-31T04:37:48.074Z,20.10
2022-08-31T04:40:25.640Z,20.10
2022-08-31T04:42:53.300Z,20.20
2022-08-31T04:45:20.252Z,20.20
2022-08-31T04:47:47.215Z,20.20
2022-08-31T04:50:16.598Z,20.20
2022-08-31T04:52:45.151Z,20.20
2022-08-31T04:55:30.562Z,20.10
2022-08-31T04:57:57.615Z,20.10
2022-08-31T05:00:24.871Z,20.10
2022-08-31T05:02:53.546Z,20.10
2022-08-31T05:05:20.543Z,20.10
2022-08-31T05:07:47.418Z,20.10
2022-08-31T05:10:15.056Z,20.10
2022-08-31T05:12:42.022Z,20.10
2022-08-31T05:15:09.182Z,20.10
2022-08-31T05:17:36.053Z,20.10
2022-08-31T05:20:05.402Z,20.10
2022-08-31T05:22:32.656Z,20.10
2022-08-31T05:24:59.773Z,20.20
2022-08-31T05:27:26.687Z,20.20
2022-08-31T05:29:53.566Z,20.30
2022-08-31T05:32:20.428Z,20.30
2022-08-31T05:34:47.315Z,20.30
2022-08-31T05:37:14.196Z,20.40
2022-08-31T05:39:41.092Z,20.40
2022-08-31T05:42:08.105Z,20.50
2022-08-31T05:44:36.352Z,20.50
2022-08-31T05:47:06.321Z,20.50
2022-08-31T05:49:34.058Z,20.50
2022-08-31T05:52:02.103Z,20.60
2022-08-31T05:54:29.459Z,20.60
2022-08-31T05:56:59.868Z,20.70
2022-08-31T05:59:29.844Z,20.80
2022-08-31T06:01:57.548Z,20.90
2022-08-31T06:04:24.862Z,21.00
2022-08-31T06:06:52.667Z,21.10
2022-08-31T06:09:19.982Z,21.10
2022-08-31T06:11:47.376Z,21.20
2022-08-31T06:14:14.863Z,21.20
2022-08-31T06:16:44.206Z,21.20
2022-08-31T06:19:15.284Z,21.20
2022-08-31T06:21:49.290Z,21.30
2022-08-31T06:24:18.289Z,21.30
2022-08-31T06:26:57.368Z,21.30
2022-08-31T06:29:25.998Z,21.20
2022-08-31T06:31:53.404Z,21.20
2022-08-31T06:34:21.190Z,21.20
2022-08-31T06:36:48.498Z,21.10
2022-08-31T06:39:16.478Z,21.10
2022-08-31T06:41:43.729Z,21.10
2022-08-31T06:44:12.697Z,21.10
2022-08-31T06:46:40.586Z,21.10
2022-08-31T06:49:08.616Z,21.20
2022-08-31T06:51:38.159Z,21.20
2022-08-31T06:54:28.547Z,21.40
2022-08-31T06:57:00.049Z,21.60
2022-08-31T06:59:29.939Z,21.80
2022-08-31T07:01:59.048Z,21.90
2022-08-31T07:04:26.762Z,22.00
2022-08-31T07:06:54.553Z,22.10
2022-08-31T07:09:21.521Z,22.10
2022-08-31T07:11:52.231Z,22.20
2022-08-31T07:14:22.322Z,22.20
2022-08-31T07:16:50.736Z,22.30
2022-08-31T07:19:18.099Z,22.30
2022-08-31T07:21:50.773Z,22.40
2022-08-31T07:24:24.376Z,22.40
2022-08-31T07:27:00.773Z,22.50
2022-08-31T07:29:40.686Z,22.50
2022-08-31T07:32:12.055Z,22.60
2022-08-31T07:34:39.578Z,22.60
2022-08-31T07:37:25.983Z,22.60
2022-08-31T07:40:12.671Z,22.70
2022-08-31T07:42:44.600Z,22.90
2022-08-31T07:45:20.082Z,23.10
2022-08-31T07:47:51.558Z,23.30
2022-08-31T07:50:19.947Z,23.20
2022-08-31T07:52:54.075Z,23.10
2022-08-31T07:55:23.207Z,23.20
2022-08-31T07:57:51.916Z,23.40
2022-08-31T08:00:22.640Z,23.40
2022-08-31T08:02:52.956Z,23.50
2022-08-31T08:05:26.937Z,23.60
2022-08-31T08:07:58.726Z,23.80
2022-08-31T08:10:26.400Z,23.90
2022-08-31T08:13:04.132Z,23.80
2022-08-31T08:15:35.714Z,23.70
2022-08-31T08:18:04.714Z,23.90
2022-08-31T08:20:37.520Z,24.20
2022-08-31T08:23:28.350Z,24.20
2022-08-31T08:25:57.721Z,24.50
2022-08-31T08:28:45.975Z,24.20
2022-08-31T08:31:15.781Z,24.10
2022-08-31T08:33:44.006Z,24.30
2022-08-31T08:36:11.173Z,24.40
2022-08-31T08:38:43.744Z,25.10
2022-08-31T08:41:17.091Z,26.30
2022-08-31T08:43:57.316Z,26.90
2022-08-31T08:46:38.858Z,27.20
2022-08-31T08:49:18.135Z,27.30
2022-08-31T08:51:47.150Z,27.30
2022-08-31T08:54:21.189Z,27.50
2022-08-31T08:56:49.225Z,27.50
2022-08-31T08:59:19.954Z,27.40
2022-08-31T09:01:49.914Z,27.50
2022-08-31T09:04:30.927Z,27.60
2022-08-31T09:07:21.273Z,28.40
2022-08-31T09:10:01.946Z,29.30
2022-08-31T09:12:47.068Z,29.70
2022-08-31T09:15:15.693Z,29.40
2022-08-31T09:17:59.278Z,28.70
2022-08-31T09:20:28.282Z,28.30
2022-08-31T09:22:57.362Z,27.90
2022-08-31T09:25:47.820Z,27.50
2022-08-31T09:28:16.424Z,27.10
2022-08-31T09:30:46.339Z,26.80
2022-08-31T09:33:18.164Z,26.40
2022-08-31T09:35:45.602Z,26.10
2022-08-31T09:38:28.150Z,25.90
2022-08-31T09:40:55.317Z,25.70
2022-08-31T09:43:38.279Z,25.40
2022-08-31T09:46:11.881Z,25.20
2022-08-31T09:48:39.987Z,24.80
2022-08-31T09:51:07.269Z,24.50
2022-08-31T09:53:59.523Z,24.10
2022-08-31T09:56:27.349Z,23.90
2022-08-31T09:59:01.733Z,23.70
2022-08-31T10:01:44.252Z,23.50
2022-08-31T10:04:16.138Z,23.30
2022-08-31T10:07:09.563Z,23.20
2022-08-31T10:09:47.056Z,23.10
2022-08-31T10:12:40.249Z,23.00
2022-08-31T10:15:20.288Z,22.80
2022-08-31T10:17:50.218Z,22.80
2022-08-31T10:20:37.370Z,22.70
2022-08-31T10:23:25.281Z,22.60
2022-08-31T10:25:57.577Z,22.60
2022-08-31T10:28:32.171Z,22.50
2022-08-31T10:31:07.632Z,22.60
2022-08-31T10:33:58.840Z,22.70
2022-08-31T10:36:33.204Z,22.90
2022-08-31T10:39:00.908Z,23.00
2022-08-31T10:41:35.587Z,23.10
2022-08-31T10:44:24.180Z,23.10
2022-08-31T10:46:59.054Z,23.10
2022-08-31T10:49:26.816Z,23.00
2022-08-31T10:52:02.411Z,22.90
2022-08-31T10:54:33.061Z,22.90
2022-08-31T10:57:05.529Z,22.80
2022-08-31T10:59:46.106Z,22.80
2022-08-31T11:02:25.128Z,22.80
2022-08-31T11:05:18.840Z,22.80
2022-08-31T11:07:55.901Z,22.80
2022-08-31T11:10:53.720Z,23.00
2022-08-31T11:13:49.454Z,23.10
2022-08-31T11:16:19.373Z,23.50
2022-08-31T11:19:13.265Z,23.80
2022-08-31T11:21:51.235Z,24.40
2022-08-31T11:24:37.586Z,24.90
2022-08-31T11:27:19.237Z,25.70
2022-08-31T11:29:57.088Z,26.70
2022-08-31T11:32:40.953Z,27.30
2022-08-31T11:35:10.543Z,27.60
2022-08-31T11:37:52.963Z,26.80
2022-08-31T11:40:44.989Z,26.50
2022-08-31T11:43:34.058Z,26.50
2022-08-31T11:46:40.264Z,26.30
2022-08-31T11:49:07.929Z,26.30
2022-08-31T11:51:41.484Z,26.80
2022-08-31T11:54:38.201Z,27.40
2022-08-31T11:57:06.587Z,27.50
2022-08-31T11:59:38.369Z,27.30
2022-08-31T12:02:26.178Z,27.00
2022-08-31T12:04:53.641Z,26.70
2022-08-31T12:07:29.785Z,26.30
2022-08-31T12:10:08.488Z,25.90
2022-08-31T12:12:55.366Z,25.40
2022-08-31T12:15:47.918Z,25.20
2022-08-31T12:18:34.769Z,24.90
2022-08-31T12:21:51.996Z,24.70
2022-08-31T12:24:27.446Z,24.50
2022-08-31T12:27:18.309Z,24.40
2022-08-31T12:29:45.609Z,24.40
2022-08-31T12:33:08.176Z,24.30
2022-08-31T12:35:37.639Z,24.30
2022-08-31T12:38:10.811Z,24.30
2022-08-31T12:40:50.272Z,24.40
2022-08-31T12:43:22.427Z,24.40
2022-08-31T12:45:58.314Z,24.40
2022-08-31T12:48:33.870Z,24.30
2022-08-31T12:51:24.521Z,24.10
2022-08-31T12:54:33.814Z,24.00
2022-08-31T12:57:12.807Z,23.80
2022-08-31T13:00:02.023Z,23.70
2022-08-31T13:02:32.972Z,23.80
2022-08-31T13:05:00.389Z,24.10
2022-08-31T13:07:34.131Z,24.60
2022-08-31T13:10:11.853Z,25.00
2022-08-31T13:12:39.705Z,25.20
2022-08-31T13:15:20.695Z,25.50
2022-08-31T13:17:47.826Z,25.90
2022-08-31T13:20:19.409Z,26.30
2022-08-31T13:22:54.865Z,26.40
2022-08-31T13:25:36.561Z,26.60
2022-08-31T13:28:11.938Z,26.70
2022-08-31T13:30:41.589Z,26.80
2022-08-31T13:33:27.157Z,26.90
2022-08-31T13:36:15.244Z,26.90
2022-08-31T13:38:51.989Z,27.00
2022-08-31T13:41:36.088Z,27.40
2022-08-31T13:44:06.621Z,27.40
2022-08-31T13:46:43.144Z,27.40
2022-08-31T13:49:32.473Z,27.50
2022-08-31T13:52:00.212Z,27.60
2022-08-31T13:54:36.199Z,27.60
2022-08-31T13:57:28.430Z,27.90
2022-08-31T14:00:39.697Z,29.20
2022-08-31T14:03:45.111Z,30.80
2022-08-31T14:06:37.999Z,30.70
2022-08-31T14:09:17.685Z,30.30
2022-08-31T14:12:00.193Z,29.90
2022-08-31T14:14:40.249Z,29.80
2022-08-31T14:17:13.509Z,29.80
2022-08-31T14:19:40.877Z,29.90
2022-08-31T14:22:27.293Z,29.80
2022-08-31T14:25:00.463Z,29.60
2022-08-31T14:27:28.374Z,29.50
2022-08-31T14:29:55.289Z,29.20
2022-08-31T14:32:22.769Z,29.10
2022-08-31T14:34:51.294Z,29.10
2022-08-31T14:37:23.283Z,29.20
2022-08-31T14:39:53.864Z,29.60
2022-08-31T14:42:25.599Z,30.40
2022-08-31T14:45:00.506Z,31.00
2022-08-31T14:47:33.122Z,31.40
2022-08-31T14:50:05.967Z,32.20
2022-08-31T14:52:53.094Z,32.40
2022-08-31T14:55:21.765Z,31.50
2022-08-31T14:57:58.090Z,30.80
2022-08-31T15:00:26.304Z,30.50
2022-08-31T15:02:53.739Z,30.30
2022-08-31T15:05:24.033Z,30.00
2022-08-31T15:07:53.022Z,29.50
2022-08-31T15:10:22.933Z,29.20
2022-08-31T15:12:50.541Z,28.90
2022-08-31T15:15:20.536Z,28.70
2022-08-31T15:17:50.939Z,28.40
2022-08-31T15:20:20.123Z,28.40
2022-08-31T15:22:48.397Z,28.40
2022-08-31T15:25:17.258Z,28.20
2022-08-31T15:27:44.803Z,28.10
2022-08-31T15:30:14.763Z,28.10
2022-08-31T15:32:46.914Z,28.10
2022-08-31T15:35:22.474Z,28.10
2022-08-31T15:37:53.168Z,28.10
2022-08-31T15:40:21.684Z,28.00
2022-08-31T15:42:51.060Z,27.90
2022-08-31T15:45:18.324Z,27.90
2022-08-31T15:48:03.937Z,27.80
2022-08-31T15:50:32.596Z,27.70
2022-08-31T15:53:08.260Z,27.70
2022-08-31T15:55:38.961Z,27.70
2022-08-31T15:58:07.859Z,27.60
2022-08-31T16:00:36.211Z,27.50
2022-08-31T16:03:03.840Z,27.30
2022-08-31T16:05:35.842Z,27.20
2022-08-31T16:08:03.807Z,27.20
2022-08-31T16:10:31.145Z,27.20
2022-08-31T16:12:58.180Z,27.20
2022-08-31T16:15:26.201Z,27.20
2022-08-31T16:17:57.231Z,27.20
2022-08-31T16:20:24.197Z,27.00
2022-08-31T16:22:51.189Z,26.90
2022-08-31T16:25:20.439Z,26.90
2022-08-31T16:27:47.763Z,26.90
2022-08-31T16:30:15.978Z,26.90
2022-08-31T16:32:42.870Z,26.80
2022-08-31T16:35:10.627Z,26.80
2022-08-31T16:37:37.904Z,26.60
2022-08-31T16:40:05.938Z,26.50
2022-08-31T16:42:32.950Z,26.40
2022-08-31T16:45:02.357Z,26.30
2022-08-31T16:47:29.771Z,26.20
2022-08-31T16:49:58.413Z,26.10
2022-08-31T16:52:27.466Z,25.90
2022-08-31T16:54:59.108Z,25.80
2022-08-31T16:57:29.756Z,25.60
2022-08-31T16:59:58.080Z,25.60
2022-08-31T17:02:25.870Z,25.50
2022-08-31T17:04:54.664Z,25.40
2022-08-31T17:07:24.044Z,25.30
2022-08-31T17:09:55.067Z,25.30
2022-08-31T17:12:26.042Z,25.20
2022-08-31T17:14:53.419Z,25.20
2022-08-31T17:17:25.318Z,25.10
2022-08-31T17:19:54.105Z,25.10
2022-08-31T17:22:30.044Z,25.00
2022-08-31T17:25:04.699Z,25.00
2022-08-31T17:27:34.469Z,24.90
2022-08-31T17:30:05.364Z,24.90
2022-08-31T17:32:32.528Z,24.90
2022-08-31T17:34:59.841Z,24.80
2022-08-31T17:37:30.437Z,24.80
2022-08-31T17:39:59.074Z,24.70
2022-08-31T17:42:28.086Z,24.60
2022-08-31T17:44:56.609Z,24.50
2022-08-31T17:47:25.874Z,24.50
2022-08-31T17:49:54.161Z,24.40
2022-08-31T17:52:21.946Z,24.40
2022-08-31T17:54:51.172Z,24.30
2022-08-31T17:57:24.257Z,24.20
2022-08-31T17:59:51.525Z,24.10
2022-08-31T18:02:23.129Z,24.10
2022-08-31T18:04:52.308Z,23.90
2022-08-31T18:07:19.532Z,23.90
2022-08-31T18:09:47.030Z,23.80
2022-08-31T18:12:16.486Z,23.70
2022-08-31T18:14:43.836Z,23.60
2022-08-31T18:17:16.273Z,23.50
2022-08-31T18:19:44.839Z,23.40
2022-08-31T18:22:14.459Z,23.40
2022-08-31T18:24:42.748Z,23.30
2022-08-31T18:27:11.166Z,23.30
2022-08-31T18:29:39.184Z,23.20
2022-08-31T18:32:07.746Z,23.20
2022-08-31T18:34:39.114Z,23.00
2022-08-31T18:37:07.849Z,22.90
2022-08-31T18:39:54.854Z,22.80
2022-08-31T18:42:46.004Z,22.70
2022-08-31T18:45:16.008Z,22.60
2022-08-31T18:47:43.428Z,22.50
2022-08-31T18:50:10.649Z,22.40
2022-08-31T18:52:39.524Z,22.30
2022-08-31T18:55:07.615Z,22.20
2022-08-31T18:57:46.309Z,22.10
2022-08-31T19:00:16.554Z,22.00
2022-08-31T19:02:44.232Z,22.00
2022-08-31T19:05:12.806Z,21.90
2022-08-31T19:07:41.386Z,21.80
2022-08-31T19:10:13.746Z,21.70
2022-08-31T19:12:42.791Z,21.60
2022-08-31T19:15:11.963Z,21.60
2022-08-31T19:17:40.234Z,21.50
2022-08-31T19:20:10.160Z,21.50
2022-08-31T19:22:38.454Z,21.40
2022-08-31T19:25:08.023Z,21.40
2022-08-31T19:27:36.678Z,21.40
2022-08-31T19:30:06.117Z,21.30
2022-08-31T19:32:33.970Z,21.30
2022-08-31T19:35:00.832Z,21.30
2022-08-31T19:37:27.763Z,21.30
2022-08-31T19:39:54.706Z,21.20
2022-08-31T19:42:39.752Z,21.20
2022-08-31T19:45:24.207Z,21.20
2022-08-31T19:47:51.714Z,21.20
2022-08-31T19:50:19.673Z,21.10
2022-08-31T19:52:51.901Z,21.10
2022-08-31T19:55:18.840Z,21.20
2022-08-31T19:57:45.810Z,21.20
2022-08-31T20:00:13.437Z,21.10
2022-08-31T20:02:42.446Z,21.10
2022-08-31T20:05:09.962Z,21.10
2022-08-31T20:07:36.999Z,21.10
2022-08-31T20:10:04.701Z,21.10
2022-08-31T20:12:31.856Z,21.00
2022-08-31T20:14:58.795Z,21.00
2022-08-31T20:17:25.756Z,21.00
2022-08-31T20:19:54.914Z,21.00
2022-08-31T20:22:23.959Z,21.00
2022-08-31T20:24:55.713Z,21.00
2022-08-31T20:27:22.721Z,21.10
2022-08-31T20:29:50.131Z,21.10
2022-08-31T20:32:17.162Z,21.10
2022-08-31T20:34:44.788Z,21.10
2022-08-31T20:37:12.802Z,21.10
2022-08-31T20:39:42.102Z,21.10
2022-08-31T20:42:09.060Z,21.00
2022-08-31T20:44:37.763Z,21.00
2022-08-31T20:47:27.191Z,21.00
2022-08-31T20:50:02.792Z,21.00
2022-08-31T20:52:35.137Z,21.00
2022-08-31T20:55:04.194Z,20.90
2022-08-31T20:57:37.660Z,20.90
2022-08-31T21:00:05.888Z,20.90
2022-08-31T21:02:34.326Z,20.90
2022-08-31T21:05:34.111Z,20.90
2022-08-31T21:07:49.205Z,20.80
2022-08-31T21:10:16.273Z,20.80
2022-08-31T21:12:50.810Z,20.80
2022-08-31T21:15:22.452Z,20.80
2022-08-31T21:17:57.097Z,20.70
2022-08-31T21:20:25.592Z,20.70
2022-08-31T21:22:53.202Z,20.70
2022-08-31T21:25:20.350Z,20.60
2022-08-31T21:27:47.254Z,20.50
2022-08-31T21:30:14.258Z,20.50
2022-08-31T21:32:41.194Z,20.40
2022-08-31T21:35:09.810Z,20.40
2022-08-31T21:37:36.963Z,20.40
2022-08-31T21:40:05.764Z,20.30
2022-08-31T21:42:33.409Z,20.30
2022-08-31T21:45:00.286Z,20.30
2022-08-31T21:47:28.725Z,20.20
2022-08-31T21:49:55.618Z,20.20
2022-08-31T21:52:22.524Z,20.10
2022-08-31T21:54:49.429Z,20.10
2022-08-31T21:57:17.840Z,20.10
2022-08-31T21:59:44.742Z,20.00
2022-08-31T22:02:12.103Z,19.90
2022-08-31T22:04:42.390Z,19.90
2022-08-31T22:07:10.471Z,19.80
2022-08-31T22:09:37.927Z,19.80
2022-08-31T22:12:07.429Z,19.70
2022-08-31T22:14:37.292Z,19.60
2022-08-31T22:17:06.949Z,19.60
2022-08-31T22:19:37.762Z,19.50
2022-08-31T22:22:12.542Z,19.50
2022-08-31T22:24:40.325Z,19.40
2022-08-31T22:27:09.301Z,19.30
2022-08-31T22:29:38.298Z,19.20
2022-08-31T22:32:09.256Z,19.10
2022-08-31T22:34:37.450Z,19.10
2022-08-31T22:37:04.987Z,19.10
2022-08-31T22:39:32.035Z,19.00
2022-08-31T22:42:01.498Z,19.00
2022-08-31T22:44:34.232Z,18.90
2022-08-31T22:47:01.909Z,18.90
2022-08-31T22:49:29.065Z,18.90
2022-08-31T22:51:57.004Z,18.90
2022-08-31T22:54:24.926Z,18.90
2022-08-31T22:56:52.881Z,18.80
2022-08-31T22:59:27.123Z,18.80
2022-08-31T23:01:59.260Z,18.80
2022-08-31T23:04:27.695Z,18.80
2022-08-31T23:06:57.418Z,18.70
2022-08-31T23:09:27.875Z,18.60
2022-08-31T23:11:56.904Z,18.60
2022-08-31T23:14:24.412Z,18.60
2022-08-31T23:16:57.878Z,18.50
2022-08-31T23:19:32.974Z,18.40
2022-08-31T23:22:01.026Z,18.40
2022-08-31T23:24:48.008Z,18.30
2022-08-31T23:27:17.561Z,18.20
2022-08-31T23:29:47.929Z,18.10
2022-08-31T23:32:18.809Z,18.10
2022-08-31T23:34:49.246Z,18.10
2022-08-31T23:37:17.828Z,18.00
2022-08-31T23:39:46.372Z,18.00
2022-08-31T23:42:16.630Z,18.00
2022-08-31T23:44:45.809Z,18.00
2022-08-31T23:47:19.206Z,17.90
2022-08-31T23:49:48.437Z,17.90
2022-08-31T23:52:18.699Z,17.80
2022-08-31T23:54:46.333Z,17.80
2022-08-31T23:57:31.708Z,17.80
